Dati Storici

Data ora Umidita' aria (%) Temperatura aria (°C) Rad globale (W/m²) Gonioanemometro (°) Tacoanemometro (m/s) Pioggia (mm)
05-11-2012 09:30 96.9 % 13.356 49.101 180.401 1.121 0
05-11-2012 09:20 97.1 % 13.411 24.117 213.559 2.801 0
05-11-2012 09:10 97 % 13.402 26.863 195.393 2.989 0
05-11-2012 09:00 97.1 % 13.535 33.005 221.828 3.12 0
05-11-2012 08:50 97.3 % 13.651 21.734 204.772 2.697 0
05-11-2012 08:40 97.3 % 13.709 72.706 249.431 1.744 0
05-11-2012 08:30 97.3 % 13.654 30.749 248.076 2.811 0
05-11-2012 08:20 97.1 % 13.588 16.919 202.915 3.506 0
05-11-2012 08:10 97 % 13.624 11.874 84.987 0.904 0
05-11-2012 08:00 96.9 % 13.669 4.986 196.532 2.249 0
05-11-2012 07:50 96.7 % 13.644 3.819 170.646 1.421 0
05-11-2012 07:40 96.6 % 13.791 3.293 179.258 2.841 0
05-11-2012 07:30 96.7 % 14.03 3.088 144.513 1.081 0
05-11-2012 07:20 97.1 % 14.302 3.049 174.405 3.145 0
05-11-2012 07:10 97.3 % 14.374 2.78 197.447 2.171 0
05-11-2012 07:00 97.5 % 14.398 2.716 224.264 2.197 0
05-11-2012 06:50 97.8 % 14.569 3.037 224.038 0.481 0
05-11-2012 06:40 97.8 % 14.476 2.909 212.363 0.82 0
05-11-2012 06:30 97.6 % 14.333 2.973 194.761 0.929 0
05-11-2012 06:20 97.4 % 14.321 2.934 181.146 0.923 0

I dati sono presentati in modo automatico a scopo informativo. In seguito a verifica i dati possono subire modifiche o essere invalidati e non riportati negli archivi definitivi.